Swan Valley, Idaho
Current Conditions -  °F | °C
As of 9:56 PM on Saturday 25 Oct 2014 (Local Time) from KDIJ Reporting Station
Clear Clear  
Wind Chill: 53°   Ceiling: Unl
Heat Index: 53°   Visibility: 10mi
Dew Point: 31°   Wind: 6mph
Humidity: 43%   Direction: 170°S
Pressure: 29.9"   Gusts: NA
Location:  43.46°N, 111.34°W
Report Text: KDIJ 260356Z AUTO 17005KT 10SM CLR 12/M01 A2990 RMK AO2 T01161005 SLP050
Loading
Personal Weather Stations






























Interactive Weather Map New forecast layout! Learn more

10-Day Weather Forecast

Advertisements
Track Severe Weather on mobile